Time;durP1;ratioP1;P1;durP2;ratioP2;P2;SDS_P1;SDS_P2;PMS_P1;PMS_P2;Temp;Humidity;BMP_temperature;BMP_pressure;BME280_temperature;BME280_humidity;BME280_pressure;Samples;Min_cycle;Max_cycle;Signal;HPM_P1;HPM_P2
2022/05/19 00:00:26;;;;;;;1.90;1.60;;;22.80;55.30;;;;;;5065963;28;43466;-62
2022/05/19 00:02:54;;;;;;;1.50;1.40;;;22.80;55.20;;;;;;5064127;28;43501;-62
2022/05/19 00:05:22;;;;;;;1.55;1.50;;;22.80;55.20;;;;;;5067190;28;43584;-62
2022/05/19 00:07:50;;;;;;;1.55;1.45;;;22.80;55.20;;;;;;5069165;28;43788;-62
2022/05/19 00:10:18;;;;;;;1.48;1.38;;;22.80;55.20;;;;;;5058080;28;43774;-62
2022/05/19 00:12:49;;;;;;;1.50;1.40;;;22.80;55.20;;;;;;5064463;28;43439;-62
2022/05/19 00:15:17;;;;;;;1.63;1.52;;;22.80;55.90;;;;;;5063676;28;43664;-62
2022/05/19 00:17:45;;;;;;;1.30;1.30;;;22.80;55.20;;;;;;5069083;28;44767;-62
2022/05/19 00:20:12;;;;;;;1.58;1.48;;;22.80;55.20;;;;;;5064883;28;43678;-62
2022/05/19 00:22:39;;;;;;;2.45;1.50;;;22.70;55.20;;;;;;5066838;28;43478;-62
2022/05/19 00:25:07;;;;;;;1.77;1.67;;;22.70;55.10;;;;;;5067100;28;43458;-62
2022/05/19 00:27:35;;;;;;;1.48;1.38;;;22.70;55.10;;;;;;5069056;28;44726;-62
2022/05/19 00:30:03;;;;;;;1.58;1.48;;;22.70;55.10;;;;;;5066558;28;43499;-62
2022/05/19 00:32:30;;;;;;;1.38;1.25;;;22.70;55.20;;;;;;5073927;28;43416;-62
2022/05/19 00:34:58;;;;;;;1.42;1.33;;;22.70;55.20;;;;;;5066970;28;43499;-62
2022/05/19 00:37:25;;;;;;;1.52;1.35;;;22.70;55.20;;;;;;5068713;28;44701;-62
2022/05/19 00:39:53;;;;;;;1.75;1.65;;;22.70;55.10;;;;;;5064313;28;43349;-62
2022/05/19 00:45:07;;;;;;;1.85;1.60;;;22.70;55.20;;;;;;5065619;28;43470;-62
2022/05/19 00:47:40;;;;;;;1.58;1.48;;;22.60;55.10;;;;;;5067150;27;43934;-62
2022/05/19 00:50:24;;;;;;;2.25;1.85;;;22.60;55.20;;;;;;5065584;28;43434;-61
2022/05/19 00:52:57;;;;;;;1.73;1.63;;;22.70;55.20;;;;;;5067236;28;43438;-62
2022/05/19 00:55:33;;;;;;;1.65;1.55;;;22.60;55.20;;;;;;5066795;27;43425;-62
2022/05/19 00:58:11;;;;;;;1.60;1.50;;;22.60;55.10;;;;;;5064629;28;44811;-62
2022/05/19 01:00:38;;;;;;;1.77;1.67;;;22.60;55.20;;;;;;5066192;28;44023;-62
2022/05/19 01:03:06;;;;;;;1.40;1.30;;;22.60;55.20;;;;;;5067020;28;43474;-62
2022/05/19 01:05:49;;;;;;;1.80;1.67;;;22.60;55.20;;;;;;5066114;28;43508;-62
2022/05/19 01:08:34;;;;;;;1.58;1.48;;;22.60;55.20;;;;;;5063379;28;45020;-62
2022/05/19 01:11:05;;;;;;;1.70;1.60;;;22.60;55.20;;;;;;5066539;28;43662;-62
2022/05/19 01:13:34;;;;;;;1.55;1.45;;;22.50;55.20;;;;;;5066566;28;43837;-62
2022/05/19 01:16:04;;;;;;;1.77;1.67;;;22.50;55.20;;;;;;5066104;28;43462;-62
2022/05/19 01:18:32;;;;;;;1.85;1.75;;;22.60;55.30;;;;;;5064437;28;44037;-62
2022/05/19 01:21:00;;;;;;;1.52;1.42;;;22.50;55.20;;;;;;5068081;27;43495;-62
2022/05/19 01:23:36;;;;;;;1.50;1.40;;;22.50;55.20;;;;;;5066265;28;43523;-62
2022/05/19 01:26:41;;;;;;;1.60;1.50;;;22.50;55.20;;;;;;5066401;28;43433;-62
2022/05/19 01:29:11;;;;;;;1.48;1.35;;;22.50;55.20;;;;;;5065939;28;44679;-62
2022/05/19 01:31:49;;;;;;;1.50;1.35;;;22.50;55.20;;;;;;5066136;28;43959;-62
2022/05/19 01:34:20;;;;;;;1.50;1.40;;;22.50;55.20;;;;;;5066470;28;43561;-62
2022/05/19 01:36:48;;;;;;;2.03;1.60;;;22.40;55.20;;;;;;5066659;28;43484;-62
2022/05/19 01:39:25;;;;;;;1.70;1.60;;;22.40;55.20;;;;;;5064553;28;44670;-63
2022/05/19 01:42:08;;;;;;;1.67;1.58;;;22.50;55.20;;;;;;5065689;28;43630;-62
2022/05/19 01:45:04;;;;;;;1.73;1.35;;;22.50;55.20;;;;;;5062969;28;43506;-62
2022/05/19 01:47:38;;;;;;;1.60;1.50;;;22.50;55.30;;;;;;5064198;28;43459;-62
2022/05/19 01:50:13;;;;;;;1.77;1.63;;;22.40;55.20;;;;;;5065589;28;44658;-62
2022/05/19 01:52:45;;;;;;;1.25;1.25;;;22.40;55.20;;;;;;5065527;28;43761;-62
2022/05/19 01:55:52;;;;;;;1.52;1.42;;;22.40;55.20;;;;;;5065973;28;43418;-62
2022/05/19 01:58:27;;;;;;;1.98;1.60;;;22.40;55.20;;;;;;5058151;28;43588;-63
2022/05/19 02:00:58;;;;;;;1.83;1.55;;;22.40;55.30;;;;;;5069101;28;44651;-62
2022/05/19 02:03:50;;;;;;;1.40;1.30;;;22.40;55.20;;;;;;5067145;28;43690;-62
2022/05/19 02:06:40;;;;;;;1.60;1.50;;;22.40;55.30;;;;;;5068483;28;43442;-62
2022/05/19 02:09:20;;;;;;;1.48;1.38;;;22.40;55.30;;;;;;5062466;28;43360;-62
2022/05/19 02:11:54;;;;;;;1.83;1.60;;;22.30;55.30;;;;;;5068436;28;43806;-62
2022/05/19 02:14:35;;;;;;;1.70;1.60;;;22.40;55.30;;;;;;5069086;28;43715;-62
2022/05/19 02:17:07;;;;;;;1.52;1.42;;;22.30;55.20;;;;;;5069170;28;43383;-62
2022/05/19 02:19:42;;;;;;;1.60;1.50;;;22.30;55.20;;;;;;5069934;28;43498;-62
2022/05/19 02:22:13;;;;;;;1.63;1.52;;;22.30;55.30;;;;;;5066855;28;43803;-61
2022/05/19 02:24:48;;;;;;;1.70;1.60;;;22.30;55.30;;;;;;5068726;28;43970;-62
2022/05/19 02:27:37;;;;;;;1.50;1.40;;;22.30;55.30;;;;;;5069136;28;43531;-62
2022/05/19 02:30:14;;;;;;;1.77;1.52;;;22.30;55.30;;;;;;5067076;28;43609;-62
2022/05/19 02:32:41;;;;;;;2.53;1.85;;;22.30;55.30;;;;;;5068784;28;45025;-62
2022/05/19 02:35:11;;;;;;;1.60;1.50;;;22.30;55.30;;;;;;5073346;28;43456;-62
2022/05/19 02:37:39;;;;;;;1.48;1.38;;;22.30;55.30;;;;;;5070201;27;43449;-62
2022/05/19 02:40:09;;;;;;;1.90;1.70;;;22.30;55.30;;;;;;5067172;28;43493;-62
2022/05/19 02:42:37;;;;;;;1.67;1.58;;;22.30;55.30;;;;;;5068477;28;44058;-62
2022/05/19 02:45:05;;;;;;;1.83;1.63;;;22.20;55.30;;;;;;5070100;28;43776;-62
2022/05/19 02:47:33;;;;;;;1.70;1.60;;;22.30;55.30;;;;;;5068829;27;43821;-62
2022/05/19 02:50:01;;;;;;;1.58;1.50;;;22.30;55.30;;;;;;5065373;28;43553;-62
2022/05/19 02:52:28;;;;;;;1.70;1.60;;;22.20;55.30;;;;;;5067047;28;43998;-62
2022/05/19 02:54:56;;;;;;;2.05;1.70;;;22.30;55.40;;;;;;5070247;28;43435;-62
2022/05/19 02:57:23;;;;;;;1.77;1.67;;;22.20;55.30;;;;;;5069105;27;43438;-62
2022/05/19 02:59:51;;;;;;;1.95;1.85;;;22.20;55.30;;;;;;5068100;28;43431;-62
2022/05/19 03:02:19;;;;;;;1.60;1.50;;;22.20;55.30;;;;;;5067643;28;44023;-62
2022/05/19 03:04:47;;;;;;;2.38;1.80;;;22.20;55.30;;;;;;5069468;28;43524;-62
2022/05/19 03:07:14;;;;;;;1.65;1.50;;;22.20;55.30;;;;;;5067353;27;43443;-62
2022/05/19 03:09:42;;;;;;;1.90;1.58;;;22.20;55.30;;;;;;5067639;28;43443;-62
2022/05/19 03:12:13;;;;;;;1.83;1.70;;;22.20;55.30;;;;;;5067603;28;44683;-62
2022/05/19 03:14:40;;;;;;;1.65;1.52;;;22.20;55.30;;;;;;5066719;28;43440;-62
2022/05/19 03:17:09;;;;;;;2.88;1.85;;;22.20;55.30;;;;;;5080056;27;43544;-62
2022/05/19 03:19:37;;;;;;;1.55;1.40;;;22.20;55.30;;;;;;5069104;28;43407;-62
2022/05/19 03:22:06;;;;;;;1.70;1.60;;;22.20;55.30;;;;;;5065194;28;44676;-62
2022/05/19 03:24:34;;;;;;;1.83;1.70;;;22.20;55.90;;;;;;5070314;28;43368;-62
2022/05/19 03:27:02;;;;;;;1.83;1.73;;;22.20;55.30;;;;;;5064960;28;43493;-62
2022/05/19 03:29:29;;;;;;;1.63;1.52;;;22.20;55.30;;;;;;5067520;28;43525;-62
2022/05/19 03:31:58;;;;;;;1.73;1.63;;;22.20;55.30;;;;;;5067459;28;44736;-62
2022/05/19 03:34:26;;;;;;;1.60;1.50;;;22.20;55.40;;;;;;5070189;28;43703;-62
2022/05/19 03:36:53;;;;;;;1.70;1.60;;;22.10;55.30;;;;;;5064356;28;43532;-62
2022/05/19 03:39:21;;;;;;;1.73;1.50;;;22.10;55.40;;;;;;5066738;28;43434;-62
2022/05/19 03:41:49;;;;;;;1.73;1.48;;;22.10;55.30;;;;;;5067522;28;43791;-62
2022/05/19 03:44:17;;;;;;;1.90;1.73;;;22.10;55.40;;;;;;5067876;28;43991;-62
2022/05/19 03:46:44;;;;;;;1.80;1.70;;;22.10;55.30;;;;;;5067522;28;43440;-62
2022/05/19 03:49:13;;;;;;;2.20;1.95;;;22.10;55.40;;;;;;5064198;28;43505;-62
2022/05/19 03:51:42;;;;;;;1.77;1.67;;;22.10;55.40;;;;;;5066254;28;44707;-62
2022/05/19 03:54:10;;;;;;;1.80;1.63;;;22.10;55.40;;;;;;5066352;28;43703;-62
2022/05/19 03:56:38;;;;;;;1.70;1.60;;;22.10;55.40;;;;;;5067280;27;43530;-62
2022/05/19 03:59:05;;;;;;;2.20;1.90;;;22.10;55.40;;;;;;5067131;28;43502;-61
2022/05/19 04:01:33;;;;;;;1.92;1.83;;;22.10;55.40;;;;;;5067021;28;44713;-62
2022/05/19 04:04:01;;;;;;;2.22;2.03;;;22.10;55.40;;;;;;5062325;28;43570;-62
2022/05/19 04:06:29;;;;;;;2.38;1.70;;;22.10;55.40;;;;;;5066977;28;43499;-62
2022/05/19 04:08:57;;;;;;;1.73;1.63;;;22.00;55.40;;;;;;5067280;28;43445;-62
2022/05/19 04:11:24;;;;;;;1.90;1.80;;;22.00;55.40;;;;;;5066863;28;43807;-62
2022/05/19 04:13:51;;;;;;;1.73;1.63;;;22.10;55.40;;;;;;5065062;28;43462;-62
2022/05/19 04:16:19;;;;;;;2.03;1.90;;;22.10;55.40;;;;;;5065374;28;43432;-62
2022/05/19 04:18:46;;;;;;;2.13;1.98;;;22.10;55.40;;;;;;5067973;28;43546;-62
2022/05/19 04:21:14;;;;;;;1.80;1.70;;;22.10;55.40;;;;;;5064585;28;43806;-62
2022/05/19 04:23:41;;;;;;;2.25;2.05;;;22.10;55.40;;;;;;5063804;28;43392;-62
2022/05/19 04:26:10;;;;;;;2.17;2.08;;;22.10;55.40;;;;;;5066620;28;43399;-62
2022/05/19 04:28:37;;;;;;;2.17;1.98;;;22.00;56.10;;;;;;5066823;28;43415;-62
2022/05/19 04:31:05;;;;;;;2.28;2.08;;;22.00;55.40;;;;;;5066583;28;44711;-62
2022/05/19 04:33:32;;;;;;;2.13;2.00;;;22.00;55.40;;;;;;5066081;28;43445;-62
2022/05/19 04:36:03;;;;;;;2.40;2.20;;;22.00;55.40;;;;;;5068121;28;43532;-62
2022/05/19 04:38:31;;;;;;;1.98;1.88;;;22.00;55.40;;;;;;5066984;28;43537;-62
2022/05/19 04:41:04;;;;;;;2.10;2.00;;;22.00;55.40;;;;;;5066051;28;44732;-62
2022/05/19 04:43:31;;;;;;;1.83;1.73;;;22.00;55.40;;;;;;5068683;27;43432;-62
2022/05/19 04:45:59;;;;;;;2.15;1.80;;;22.00;55.40;;;;;;5070337;27;43477;-62
2022/05/19 04:48:26;;;;;;;2.10;1.90;;;22.00;55.40;;;;;;5066427;28;43497;-62
2022/05/19 04:50:57;;;;;;;2.08;1.80;;;22.00;55.40;;;;;;5064367;28;45123;-62
2022/05/19 04:53:26;;;;;;;1.90;1.80;;;22.00;55.40;;;;;;5067308;27;43693;-62
2022/05/19 04:55:54;;;;;;;1.88;1.77;;;22.00;55.40;;;;;;5066569;28;43371;-62
2022/05/19 04:58:22;;;;;;;2.05;1.85;;;22.00;55.40;;;;;;5066771;28;43534;-62
2022/05/19 05:00:51;;;;;;;2.60;2.30;;;22.00;55.40;;;;;;5068372;28;44177;-62
2022/05/19 05:03:19;;;;;;;2.15;1.95;;;22.00;55.40;;;;;;5066421;28;43713;-62
2022/05/19 05:05:47;;;;;;;1.98;1.88;;;21.90;55.30;;;;;;5066361;28;43456;-62
2022/05/19 05:08:14;;;;;;;1.98;1.77;;;22.00;55.40;;;;;;5065326;28;43427;-62
2022/05/19 05:10:42;;;;;;;1.88;1.73;;;22.00;55.40;;;;;;5068429;28;43808;-62
2022/05/19 05:13:13;;;;;;;2.40;2.20;;;22.00;55.40;;;;;;5066942;28;43523;-62
2022/05/19 05:15:42;;;;;;;2.25;2.08;;;21.90;55.30;;;;;;5057372;28;43341;-62
2022/05/19 05:18:11;;;;;;;2.08;1.90;;;21.90;55.40;;;;;;5064511;28;43549;-62
2022/05/19 05:20:41;;;;;;;2.00;1.90;;;21.90;55.40;;;;;;5067725;28;44723;-62
2022/05/19 05:23:10;;;;;;;;;;;22.00;55.40;;;;;;5066385;28;43541;-62
2022/05/19 05:25:38;;;;;;;1.98;1.88;;;21.90;55.40;;;;;;5065574;28;43436;-62
2022/05/19 05:28:06;;;;;;;2.30;2.20;;;21.90;55.40;;;;;;5063735;28;43449;-62
2022/05/19 05:30:34;;;;;;;1.80;1.70;;;21.90;55.40;;;;;;5064413;28;43883;-62
2022/05/19 05:33:05;;;;;;;2.13;1.92;;;21.90;55.40;;;;;;5063128;27;43819;-62
2022/05/19 05:35:34;;;;;;;2.00;1.90;;;21.90;55.70;;;;;;5069472;28;43529;-62
2022/05/19 05:38:01;;;;;;;1.98;1.88;;;21.90;55.60;;;;;;5070265;28;43442;-61
2022/05/19 05:40:29;;;;;;;1.98;1.83;;;21.90;56.20;;;;;;5071097;27;44833;-62
2022/05/19 05:43:05;;;;;;;2.05;1.92;;;21.90;55.50;;;;;;5069304;28;43399;-61
2022/05/19 05:45:32;;;;;;;1.95;1.85;;;21.90;55.50;;;;;;5066454;28;43452;-62
2022/05/19 05:48:00;;;;;;;1.85;1.75;;;21.90;56.10;;;;;;5068143;28;43504;-62
2022/05/19 05:50:27;;;;;;;2.00;1.90;;;21.90;55.40;;;;;;5065862;28;43778;-62
2022/05/19 05:52:55;;;;;;;1.92;1.80;;;21.90;55.50;;;;;;5068894;28;43478;-62
2022/05/19 05:55:23;;;;;;;2.10;1.95;;;21.90;55.40;;;;;;5066951;28;43491;-62
2022/05/19 05:57:50;;;;;;;2.35;2.17;;;21.90;55.40;;;;;;5069155;28;43405;-62
2022/05/19 06:00:19;;;;;;;2.42;2.05;;;21.90;55.40;;;;;;5085379;27;43804;-62
2022/05/19 06:02:48;;;;;;;2.40;2.10;;;21.90;55.40;;;;;;5058859;28;43486;-62
2022/05/19 06:05:18;;;;;;;2.03;1.92;;;21.90;55.50;;;;;;5066618;28;43574;-62
2022/05/19 06:07:45;;;;;;;2.15;2.05;;;21.90;55.40;;;;;;5071615;28;43413;-62
2022/05/19 06:10:14;;;;;;;2.10;2.00;;;21.90;55.40;;;;;;5069442;28;44737;-62
2022/05/19 06:12:41;;;;;;;2.47;2.28;;;21.90;55.50;;;;;;5068912;28;43464;-62
2022/05/19 06:15:12;;;;;;;2.00;1.90;;;21.90;55.50;;;;;;5065944;28;43408;-62
2022/05/19 06:17:39;;;;;;;2.47;2.27;;;21.90;55.60;;;;;;5071545;28;43501;-62
2022/05/19 06:20:11;;;;;;;2.17;2.08;;;21.90;55.70;;;;;;5068191;28;43794;-62
2022/05/19 06:22:39;;;;;;;3.17;2.50;;;21.90;55.80;;;;;;5068831;28;43969;-62
2022/05/19 06:25:07;;;;;;;2.30;2.10;;;21.90;55.80;;;;;;5069088;28;43440;-62
2022/05/19 06:27:35;;;;;;;2.28;2.17;;;21.90;55.90;;;;;;5067553;28;43406;-62
2022/05/19 06:30:03;;;;;;;2.63;2.47;;;21.90;55.90;;;;;;5068698;28;43796;-63
2022/05/19 06:32:31;;;;;;;2.80;2.60;;;21.90;56.00;;;;;;5067258;28;43499;-63
2022/05/19 06:34:58;;;;;;;2.50;2.30;;;21.90;55.90;;;;;;5071988;28;43464;-62
2022/05/19 06:37:26;;;;;;;2.45;2.20;;;21.90;56.00;;;;;;5067283;28;44019;-62
2022/05/19 06:39:53;;;;;;;2.53;2.33;;;21.90;56.00;;;;;;5083865;27;44712;-62
2022/05/19 06:42:21;;;;;;;2.35;2.17;;;21.90;56.10;;;;;;5068503;28;43713;-63
2022/05/19 06:44:49;;;;;;;2.33;2.15;;;21.90;56.10;;;;;;5069197;27;43495;-62
2022/05/19 06:47:17;;;;;;;2.42;2.25;;;21.90;56.10;;;;;;5070626;27;43627;-62
2022/05/19 06:49:47;;;;;;;2.70;2.13;;;21.90;56.20;;;;;;5058611;28;43641;-63
2022/05/19 06:52:21;;;;;;;2.72;2.40;;;22.00;56.20;;;;;;5068296;28;43455;-62
2022/05/19 06:54:51;;;;;;;2.10;2.00;;;21.90;56.20;;;;;;5069790;28;43436;-62
2022/05/19 06:57:20;;;;;;;3.38;2.30;;;22.00;56.10;;;;;;5067905;27;43437;-62
2022/05/19 06:59:49;;;;;;;3.03;2.72;;;21.90;56.10;;;;;;5068314;28;44691;-62
2022/05/19 07:02:18;;;;;;;2.67;2.30;;;22.00;56.20;;;;;;5068109;28;43422;-62
2022/05/19 07:04:46;;;;;;;2.35;2.10;;;22.00;56.20;;;;;;5070599;28;43423;-62
2022/05/19 07:07:14;;;;;;;2.15;2.00;;;22.00;56.10;;;;;;5066339;28;43530;-62
2022/05/19 07:09:42;;;;;;;2.10;2.00;;;22.00;56.10;;;;;;5068022;28;43808;-62
2022/05/19 07:12:11;;;;;;;2.30;2.10;;;22.00;56.20;;;;;;5067191;28;44061;-62
2022/05/19 07:14:39;;;;;;;2.22;2.03;;;21.90;56.30;;;;;;5070561;28;43467;-62
2022/05/19 07:17:09;;;;;;;2.00;1.90;;;22.00;56.30;;;;;;5065277;28;43610;-62
2022/05/19 07:22:24;;;;;;;2.45;1.77;;;22.00;56.10;;;;;;5069439;28;44016;-62
2022/05/19 07:24:52;;;;;;;2.10;1.90;;;21.90;56.10;;;;;;5069050;27;43412;-63
2022/05/19 07:27:20;;;;;;;2.35;1.80;;;21.90;56.00;;;;;;5067908;28;43653;-62
2022/05/19 07:29:47;;;;;;;1.95;1.85;;;21.90;56.10;;;;;;5067688;28;43978;-62
2022/05/19 07:32:22;;;;;;;2.45;1.80;;;21.90;56.00;;;;;;5070075;28;43429;-62
2022/05/19 07:34:50;;;;;;;2.50;2.17;;;22.00;56.10;;;;;;5066344;28;43980;-62
2022/05/19 07:37:17;;;;;;;1.90;1.80;;;22.00;56.10;;;;;;5068048;28;43472;-63
2022/05/19 07:39:45;;;;;;;1.80;1.70;;;22.00;56.30;;;;;;5068056;28;43776;-62
2022/05/19 07:42:12;;;;;;;2.08;1.73;;;22.00;56.10;;;;;;5071118;28;43490;-62
2022/05/19 07:44:41;;;;;;;3.28;1.83;;;22.00;56.20;;;;;;5065996;28;43417;-62
2022/05/19 07:47:08;;;;;;;2.17;1.70;;;22.00;56.10;;;;;;5065877;28;43475;-62
2022/05/19 07:49:36;;;;;;;1.95;1.77;;;22.00;56.10;;;;;;5065631;28;44767;-62
2022/05/19 07:52:04;;;;;;;1.92;1.75;;;22.00;56.00;;;;;;5069694;28;43713;-62
2022/05/19 07:54:32;;;;;;;3.10;2.20;;;22.00;56.10;;;;;;5064852;28;43404;-62
2022/05/19 07:56:59;;;;;;;2.30;2.08;;;22.00;56.10;;;;;;5067015;28;43753;-62
2022/05/19 07:59:28;;;;;;;1.65;1.55;;;22.00;56.20;;;;;;5067650;28;43807;-62
2022/05/19 08:01:55;;;;;;;1.90;1.80;;;22.00;56.00;;;;;;5064901;28;43502;-62
2022/05/19 08:04:25;;;;;;;1.80;1.70;;;22.00;56.10;;;;;;5064463;27;43423;-62
2022/05/19 08:06:53;;;;;;;2.30;1.80;;;22.00;55.90;;;;;;5065098;28;44170;-62
2022/05/19 08:15:34;;;;;;;1.98;1.70;;;22.00;56.10;;;;;;5066575;28;43539;-62
2022/05/19 08:18:01;;;;;;;1.93;1.70;;;22.00;56.30;;;;;;5067309;28;43466;-62
2022/05/19 08:20:29;;;;;;;2.30;1.73;;;22.10;56.20;;;;;;5060554;28;43799;-62
2022/05/19 08:22:57;;;;;;;2.33;1.80;;;22.10;56.10;;;;;;5060145;28;43408;-63
2022/05/19 08:25:27;;;;;;;1.80;1.70;;;22.10;56.10;;;;;;5068020;28;43442;-62
2022/05/19 08:27:56;;;;;;;2.30;1.60;;;22.10;56.00;;;;;;5067331;28;43459;-62
2022/05/19 08:30:24;;;;;;;1.70;1.60;;;22.10;56.00;;;;;;5066320;28;44702;-62
2022/05/19 08:32:52;;;;;;;2.15;1.70;;;22.10;55.90;;;;;;5063822;28;43529;-62
2022/05/19 08:35:20;;;;;;;1.77;1.67;;;22.10;55.90;;;;;;5068997;28;43556;-62
2022/05/19 08:37:49;;;;;;;2.42;1.98;;;22.10;55.90;;;;;;5066604;28;43439;-62
2022/05/19 08:40:18;;;;;;;1.98;1.83;;;22.10;56.10;;;;;;5066435;28;43863;-62
2022/05/19 08:42:51;;;;;;;2.05;1.70;;;22.10;56.00;;;;;;5066296;28;43411;-62
2022/05/19 08:45:26;;;;;;;2.28;1.90;;;22.10;56.10;;;;;;5066688;28;43538;-62
2022/05/19 08:48:02;;;;;;;2.25;2.00;;;22.10;56.10;;;;;;5066487;28;43443;-62
2022/05/19 08:50:59;;;;;;;3.17;1.88;;;22.10;56.20;;;;;;5064127;28;44668;-61
2022/05/19 08:53:31;;;;;;;2.53;1.90;;;22.10;56.20;;;;;;5063932;28;43745;-62
2022/05/19 08:56:19;;;;;;;2.53;1.90;;;22.20;56.30;;;;;;5066502;28;43462;-62
2022/05/19 08:59:11;;;;;;;3.08;2.00;;;22.10;56.20;;;;;;5066218;28;43474;-62
2022/05/19 09:01:53;;;;;;;2.65;1.90;;;22.20;56.40;;;;;;5066275;28;44710;-62
2022/05/19 09:04:37;;;;;;;2.10;1.73;;;22.20;56.60;;;;;;5061717;28;43560;-62
2022/05/19 09:10:16;;;;;;;2.47;1.77;;;22.20;56.40;;;;;;5069305;28;43503;-62
2022/05/19 09:12:47;;;;;;;2.13;1.98;;;22.20;56.60;;;;;;5072273;28;44977;-62
2022/05/19 09:15:15;;;;;;;2.47;1.88;;;22.10;56.60;;;;;;5066741;28;44005;-62
2022/05/19 09:17:47;;;;;;;1.73;1.60;;;22.10;56.40;;;;;;5067799;28;43394;-62
2022/05/19 09:20:20;;;;;;;1.80;1.70;;;22.10;56.40;;;;;;5071982;28;43449;-62
2022/05/19 09:22:47;;;;;;;2.08;1.75;;;22.10;56.60;;;;;;5070928;27;44750;-62
2022/05/19 09:25:21;;;;;;;2.53;2.00;;;22.10;56.50;;;;;;5069128;28;43720;-62
2022/05/19 09:27:51;;;;;;;1.58;1.48;;;22.10;56.40;;;;;;5066996;28;43390;-62
2022/05/19 09:30:39;;;;;;;2.70;2.08;;;22.20;56.40;;;;;;5067578;28;43396;-62
2022/05/19 09:33:13;;;;;;;2.28;2.05;;;22.20;56.80;;;;;;5064459;28;43755;-62
2022/05/19 09:35:47;;;;;;;3.10;2.22;;;22.20;57.00;;;;;;5060139;28;43586;-62
2022/05/19 09:38:35;;;;;;;4.07;2.70;;;22.20;57.00;;;;;;5071153;28;43493;-62
2022/05/19 09:41:23;;;;;;;3.92;2.88;;;22.20;57.00;;;;;;5067613;28;44330;-62
2022/05/19 09:43:56;;;;;;;4.93;2.58;;;22.30;57.10;;;;;;5066322;28;43805;-63
2022/05/19 09:46:24;;;;;;;4.43;2.10;;;22.30;56.80;;;;;;5065759;28;43723;-62
2022/05/19 09:49:02;;;;;;;3.78;2.10;;;22.30;56.90;;;;;;5067593;28;43455;-62
2022/05/19 09:51:41;;;;;;;4.47;2.63;;;22.30;56.90;;;;;;5069339;28;43493;-62
2022/05/19 09:54:15;;;;;;;4.30;2.60;;;22.30;57.20;;;;;;5066405;28;44136;-62
2022/05/19 09:56:53;;;;;;;3.05;2.42;;;22.30;57.00;;;;;;5069463;28;43502;-62
2022/05/19 09:59:34;;;;;;;4.18;2.58;;;22.30;56.70;;;;;;5064569;28;43406;-62
2022/05/19 10:02:23;;;;;;;2.30;2.10;;;22.30;56.70;;;;;;5067799;28;43525;-62
2022/05/19 10:04:57;;;;;;;3.22;2.20;;;22.30;56.70;;;;;;5069452;28;44840;-62
2022/05/19 10:07:30;;;;;;;2.65;1.95;;;22.30;56.80;;;;;;5066771;28;43929;-62
2022/05/19 10:09:58;;;;;;;3.83;2.40;;;22.30;57.00;;;;;;5067671;28;43586;-62
2022/05/19 10:12:32;;;;;;;5.28;2.38;;;22.40;57.80;;;;;;5066767;28;43514;-63
2022/05/19 10:15:03;;;;;;;4.45;2.40;;;22.40;57.70;;;;;;5070169;28;44054;-62
2022/05/19 10:17:54;;;;;;;3.88;2.08;;;22.40;57.70;;;;;;5069121;28;43995;-61
2022/05/19 10:20:32;;;;;;;3.60;2.47;;;22.40;57.90;;;;;;5067208;28;43485;-62
2022/05/19 10:23:46;;;;;;;5.22;2.33;;;22.40;58.00;;;;;;5069454;28;43565;-63
2022/05/19 10:26:33;;;;;;;3.88;2.10;;;22.40;58.10;;;;;;5064504;28;44036;-62
2022/05/19 10:32:33;;;;;;;3.67;2.45;;;22.40;58.00;;;;;;5063430;28;44084;-62
2022/05/19 10:35:11;;;;;;;3.42;2.40;;;22.40;58.00;;;;;;5061394;28;43569;-63
2022/05/19 10:37:40;;;;;;;4.63;2.80;;;22.50;58.30;;;;;;5070811;28;43858;-62
2022/05/19 10:40:28;;;;;;;2.90;2.60;;;22.50;58.60;;;;;;5068473;28;43473;-62
2022/05/19 10:43:02;;;;;;;3.00;2.60;;;22.50;58.60;;;;;;5069675;28;43433;-61
2022/05/19 10:45:37;;;;;;;3.42;2.28;;;22.50;57.90;;;;;;5067054;28;43525;-62
2022/05/19 10:48:29;;;;;;;3.38;2.38;;;22.50;58.10;;;;;;5054896;28;43783;-63
2022/05/19 10:51:07;;;;;;;2.90;2.40;;;22.50;58.10;;;;;;5060857;28;43401;-62
2022/05/19 10:53:54;;;;;;;3.33;2.60;;;22.60;58.20;;;;;;5069065;28;43432;-62
2022/05/19 10:56:45;;;;;;;3.58;2.47;;;22.60;58.40;;;;;;5066038;28;43484;-62
2022/05/19 10:59:27;;;;;;;4.28;2.65;;;22.60;58.10;;;;;;5043728;28;44057;-63
2022/05/19 11:02:13;;;;;;;4.30;2.33;;;22.70;58.10;;;;;;5068342;28;43995;-62
2022/05/19 11:05:13;;;;;;;3.33;2.30;;;22.70;58.10;;;;;;5071662;28;43419;-63
2022/05/19 11:08:02;;;;;;;3.42;2.40;;;22.70;58.00;;;;;;5048800;28;44207;-63
2022/05/19 11:10:52;;;;;;;4.10;2.50;;;22.70;58.20;;;;;;5069478;28;43983;-62
2022/05/19 11:13:19;;;;;;;2.57;2.37;;;22.70;58.40;;;;;;5061551;28;43975;-62
2022/05/19 11:16:22;;;;;;;3.40;2.42;;;22.70;58.30;;;;;;5068117;28;43650;-62
2022/05/19 11:19:09;;;;;;;2.72;2.50;;;22.80;58.40;;;;;;5062659;28;43613;-62
2022/05/19 11:21:41;;;;;;;2.85;2.42;;;22.80;58.40;;;;;;5067619;28;44843;-62
2022/05/19 11:24:22;;;;;;;3.55;2.45;;;22.80;58.50;;;;;;5069285;28;43486;-62
2022/05/19 11:27:08;;;;;;;4.13;2.55;;;22.80;57.90;;;;;;5064208;28;43449;-62
2022/05/19 11:29:49;;;;;;;3.42;2.80;;;22.80;58.20;;;;;;5063409;28;43604;-61
2022/05/19 11:32:27;;;;;;;3.45;2.63;;;22.80;58.50;;;;;;5069919;27;44065;-62
2022/05/19 11:35:13;;;;;;;3.42;2.90;;;22.80;58.70;;;;;;5066979;28;43541;-62
2022/05/19 11:37:44;;;;;;;3.03;2.72;;;22.80;58.70;;;;;;5065998;28;43477;-62
2022/05/19 11:40:50;;;;;;;3.40;2.67;;;22.90;58.60;;;;;;5066940;28;43454;-62
2022/05/19 11:43:34;;;;;;;2.50;2.30;;;22.90;58.10;;;;;;5064562;28;44994;-62
2022/05/19 11:46:15;;;;;;;2.45;2.25;;;22.90;58.20;;;;;;5064447;28;44247;-62
2022/05/19 11:55:19;;;;;;;3.07;2.57;;;23.00;58.50;;;;;;5059861;28;44682;-62
2022/05/19 11:58:09;;;;;;;3.08;2.72;;;22.90;58.70;;;;;;5069376;28;44102;-62
2022/05/19 12:00:46;;;;;;;2.90;2.60;;;23.00;58.80;;;;;;5064469;28;43509;-61
2022/05/19 12:03:23;;;;;;;3.17;2.40;;;23.00;58.40;;;;;;5072848;28;43485;-62
2022/05/19 12:06:00;;;;;;;2.20;2.00;;;23.00;58.40;;;;;;5076720;27;45104;-63
2022/05/19 12:08:39;;;;;;;3.22;2.30;;;23.00;58.50;;;;;;5065587;28;43524;-62
2022/05/19 12:11:24;;;;;;;3.25;2.33;;;23.00;58.50;;;;;;5067243;28;43508;-62
2022/05/19 12:14:21;;;;;;;2.40;2.20;;;23.00;58.50;;;;;;5066615;28;43514;-63
2022/05/19 12:17:03;;;;;;;2.47;2.25;;;23.10;58.60;;;;;;5066688;28;43777;-62
2022/05/19 12:19:40;;;;;;;4.03;2.35;;;23.00;58.40;;;;;;5068187;28;44046;-62
2022/05/19 12:22:12;;;;;;;3.40;2.90;;;23.10;58.40;;;;;;5062310;28;43445;-62
2022/05/19 12:24:52;;;;;;;2.92;2.70;;;23.00;58.40;;;;;;5067113;28;43496;-63
2022/05/19 12:27:49;;;;;;;3.60;2.83;;;23.00;58.40;;;;;;5069215;28;43858;-62
2022/05/19 12:33:50;;;;;;;2.38;2.15;;;23.00;58.10;;;;;;5066380;28;43452;-62
2022/05/19 12:36:31;;;;;;;2.20;2.10;;;23.00;58.10;;;;;;5062100;28;44033;-62
2022/05/19 12:39:18;;;;;;;3.00;2.70;;;22.90;58.00;;;;;;5065691;28;43813;-62
2022/05/19 12:41:49;;;;;;;5.80;2.83;;;23.00;57.90;;;;;;5065062;28;43475;-62
2022/05/19 12:44:35;;;;;;;2.45;2.25;;;22.90;57.70;;;;;;5064885;28;43469;-62
2022/05/19 12:47:20;;;;;;;2.60;2.10;;;23.00;57.40;;;;;;5069016;28;43523;-62
2022/05/19 12:50:10;;;;;;;2.92;2.10;;;23.00;57.60;;;;;;5060697;28;44977;-62
2022/05/19 12:52:58;;;;;;;2.90;2.20;;;23.00;57.50;;;;;;5066733;28;43523;-62
2022/05/19 12:55:26;;;;;;;2.78;2.08;;;23.00;57.60;;;;;;5066902;28;43470;-63
2022/05/19 12:58:18;;;;;;;2.20;2.00;;;23.00;57.50;;;;;;5066866;28;43487;-62
2022/05/19 13:00:45;;;;;;;2.40;2.20;;;23.00;57.50;;;;;;5066435;28;44041;-62
2022/05/19 13:03:17;;;;;;;2.28;2.08;;;23.00;57.50;;;;;;5065561;28;43438;-62
2022/05/19 13:05:57;;;;;;;2.05;1.95;;;23.10;57.60;;;;;;5054098;28;43452;-62
2022/05/19 13:08:38;;;;;;;2.20;2.00;;;23.00;57.50;;;;;;5063172;28;43642;-64
2022/05/19 13:11:14;;;;;;;5.50;2.97;;;23.00;57.40;;;;;;5064448;28;43874;-64
2022/05/19 13:14:12;;;;;;;4.45;3.13;;;23.00;58.90;;;;;;5066052;28;43565;-63
2022/05/19 13:16:51;;;;;;;5.13;2.85;;;23.00;58.60;;;;;;5064661;28;43464;-64
2022/05/19 13:19:25;;;;;;;3.30;2.53;;;23.00;58.90;;;;;;5066656;28;43483;-63
2022/05/19 13:22:02;;;;;;;3.03;2.38;;;23.00;58.40;;;;;;5067004;28;44947;-62
2022/05/19 13:24:35;;;;;;;4.45;2.58;;;23.00;58.20;;;;;;5063694;28;44051;-63
2022/05/19 13:32:40;;;;;;;3.17;2.42;;;23.00;58.50;;;;;;5065437;28;44984;-62
2022/05/19 13:35:14;;;;;;;2.70;2.40;;;22.90;58.40;;;;;;5056049;28;43509;-62
2022/05/19 13:37:44;;;;;;;4.20;2.13;;;22.90;58.70;;;;;;5063479;28;43446;-62
2022/05/19 13:40:17;;;;;;;3.13;2.47;;;23.00;58.90;;;;;;5066069;28;43521;-62
2022/05/19 13:42:55;;;;;;;3.05;2.50;;;23.00;58.30;;;;;;5061741;28;44997;-62
2022/05/19 13:45:27;;;;;;;2.45;2.25;;;23.00;58.70;;;;;;5053689;28;44100;-63
2022/05/19 13:47:55;;;;;;;2.35;2.10;;;23.00;58.10;;;;;;5063342;28;43446;-63
2022/05/19 13:50:26;;;;;;;2.50;2.20;;;23.00;58.00;;;;;;5066896;28;43585;-64
2022/05/19 13:53:01;;;;;;;2.80;2.30;;;23.00;58.10;;;;;;5065644;28;44019;-63